createdAt,value
2023-02-05T00:00:44.441Z,80306.72
2023-02-05T00:07:02.663Z,80330.91
2023-02-05T00:13:20.905Z,80285.56
2023-02-05T00:19:43.954Z,80281.53
2023-02-05T00:26:01.688Z,80291.61
2023-02-05T00:32:19.656Z,80230.14
2023-02-05T00:38:39.540Z,80179.77
2023-02-05T00:44:57.539Z,80186.82
2023-02-05T00:51:15.640Z,80168.69
2023-02-05T00:57:33.871Z,80197.90
2023-02-05T01:03:52.468Z,80165.66
2023-02-05T01:10:10.757Z,80199.92
2023-02-05T01:16:28.995Z,80221.08
2023-02-05T01:22:49.260Z,80213.02
2023-02-05T01:29:08.049Z,80190.84
2023-02-05T01:35:26.157Z,80212.01
2023-02-05T01:41:44.718Z,80211.00
2023-02-05T01:48:02.742Z,80222.08
2023-02-05T01:54:20.704Z,80226.11
2023-02-05T02:00:38.922Z,80223.09
2023-02-05T02:06:57.668Z,80288.58
2023-02-05T02:13:15.709Z,80265.41
2023-02-05T02:19:33.724Z,80245.26
2023-02-05T02:26:04.552Z,80216.03
2023-02-05T02:32:22.802Z,80214.02
2023-02-05T02:38:42.149Z,80197.90
2023-02-05T02:45:00.437Z,80208.98
2023-02-05T02:51:18.455Z,80177.75
2023-02-05T02:57:37.078Z,80192.86
2023-02-05T03:03:55.676Z,80186.82
2023-02-05T03:10:13.756Z,80180.77
2023-02-05T03:16:31.590Z,80178.76
2023-02-05T03:22:51.584Z,80206.97
2023-02-05T03:29:09.917Z,80186.82
2023-02-05T03:35:28.878Z,80207.98
2023-02-05T03:41:53.705Z,80177.75
2023-02-05T03:48:18.203Z,80182.79
2023-02-05T03:54:36.950Z,80181.78
2023-02-05T04:00:57.174Z,80169.69
2023-02-05T04:07:15.358Z,80173.72
2023-02-05T04:13:33.669Z,80163.64
2023-02-05T04:19:51.659Z,80166.67
2023-02-05T04:26:09.823Z,80165.66
2023-02-05T04:32:27.757Z,80177.75
2023-02-05T04:38:47.686Z,80186.82
2023-02-05T04:45:06.039Z,80172.71
2023-02-05T04:51:25.884Z,80159.61
2023-02-05T04:57:43.980Z,80158.61
2023-02-05T05:04:04.328Z,80147.53
2023-02-05T05:10:24.595Z,80166.67
2023-02-05T05:16:42.799Z,80191.86
2023-02-05T05:23:00.592Z,80192.86
2023-02-05T05:29:18.769Z,80199.92
2023-02-05T05:35:38.714Z,80237.20
2023-02-05T05:41:58.495Z,80268.43
2023-02-05T05:48:16.621Z,80280.52
2023-02-05T05:54:34.918Z,80277.50
2023-02-05T06:00:53.142Z,80282.53
2023-02-05T06:07:13.402Z,80301.68
2023-02-05T06:13:31.205Z,80405.46
2023-02-05T06:19:49.445Z,80483.05
2023-02-05T06:26:09.506Z,80458.87
2023-02-05T06:32:27.731Z,80511.27
2023-02-05T06:38:45.860Z,80531.41
2023-02-05T06:45:04.284Z,80526.37
2023-02-05T06:51:22.185Z,80508.24
2023-02-05T06:57:40.260Z,80510.25
2023-02-05T07:03:58.406Z,80515.30
2023-02-05T07:10:16.625Z,80530.41
2023-02-05T07:16:34.883Z,80564.67
2023-02-05T07:22:53.269Z,80606.98
2023-02-05T07:29:11.715Z,80614.05
2023-02-05T07:35:29.762Z,80602.95
2023-02-05T07:41:48.325Z,80615.05
2023-02-05T07:48:06.652Z,80618.08
2023-02-05T07:54:24.781Z,80601.95
2023-02-05T08:00:42.940Z,80608.00
2023-02-05T08:07:00.949Z,80563.66
2023-02-05T08:13:18.988Z,80572.73
2023-02-05T08:19:37.475Z,80550.56
2023-02-05T08:25:55.554Z,80561.64
2023-02-05T08:32:13.998Z,80490.10
2023-02-05T08:38:31.980Z,80508.24
2023-02-05T08:44:52.002Z,80519.33
2023-02-05T08:51:12.287Z,80498.16
2023-02-05T08:57:30.198Z,80520.33
2023-02-05T09:03:50.743Z,80458.87
2023-02-05T09:10:08.627Z,80508.24
2023-02-05T09:16:26.648Z,80505.22
2023-02-05T09:22:44.903Z,80533.43
2023-02-05T09:29:03.272Z,80536.45
2023-02-05T09:35:21.175Z,80435.69
2023-02-05T09:41:38.898Z,80433.67
2023-02-05T09:47:58.746Z,80472.97
2023-02-05T09:54:16.836Z,80410.50
2023-02-05T10:00:36.282Z,80345.01
2023-02-05T10:06:54.471Z,80412.52
2023-02-05T10:13:15.692Z,80312.77
2023-02-05T10:19:44.059Z,80309.74
2023-02-05T10:26:02.206Z,80249.28
2023-02-05T10:32:25.998Z,80265.41
2023-02-05T10:38:45.587Z,80339.97
2023-02-05T10:45:03.645Z,80395.38
2023-02-05T10:51:22.479Z,80365.16
2023-02-05T10:57:43.616Z,80390.34
2023-02-05T11:04:02.113Z,80413.52
2023-02-05T11:10:20.346Z,80443.75
2023-02-05T11:16:38.488Z,80367.17
2023-02-05T11:22:56.963Z,80375.23
2023-02-05T11:29:24.730Z,80398.41
2023-02-05T11:35:50.997Z,80383.30
2023-02-05T11:42:14.859Z,80383.30
2023-02-05T11:48:32.837Z,80413.52
2023-02-05T11:54:50.934Z,80384.30
2023-02-05T12:01:11.009Z,80421.59
2023-02-05T12:07:31.901Z,80395.38
2023-02-05T12:13:50.279Z,80393.38
2023-02-05T12:20:10.062Z,80395.38
2023-02-05T12:26:29.730Z,80396.39
2023-02-05T12:32:55.394Z,80389.34
2023-02-05T12:39:18.682Z,80383.30
2023-02-05T12:45:38.036Z,80435.69
2023-02-05T12:51:59.005Z,80393.38
2023-02-05T12:58:22.912Z,80346.02
2023-02-05T13:04:40.994Z,80389.34
2023-02-05T13:10:59.857Z,80373.22
2023-02-05T13:17:18.526Z,80433.67
2023-02-05T13:23:36.634Z,80467.94
2023-02-05T13:29:54.234Z,80449.80
2023-02-05T13:36:13.082Z,80469.95
2023-02-05T13:42:34.287Z,80461.89
2023-02-05T13:49:06.303Z,80457.86
2023-02-05T13:55:28.571Z,80442.74
2023-02-05T14:01:47.614Z,80427.63
2023-02-05T14:08:06.403Z,80471.97
2023-02-05T14:14:31.082Z,80427.63
2023-02-05T14:17:35.463Z,80403.45
2023-02-05T14:23:34.938Z,80420.58
2023-02-05T14:29:52.680Z,80443.75
2023-02-05T14:36:30.995Z,80448.79
2023-02-05T14:42:53.385Z,80434.69
2023-02-05T14:49:15.128Z,80417.55
2023-02-05T14:55:33.108Z,80432.67
2023-02-05T15:01:56.785Z,80509.25
2023-02-05T15:08:15.961Z,80502.19
2023-02-05T15:14:35.891Z,80529.40
2023-02-05T15:17:40.481Z,80513.28
2023-02-05T15:23:44.353Z,80547.54
2023-02-05T15:30:03.683Z,80608.00
2023-02-05T15:36:21.577Z,80568.70
2023-02-05T15:42:47.087Z,80621.09
2023-02-05T15:49:04.969Z,80654.35
2023-02-05T15:55:25.110Z,80674.50
2023-02-05T16:01:43.362Z,80709.77
2023-02-05T16:08:01.446Z,80730.94
2023-02-05T16:14:24.153Z,80766.20
2023-02-05T16:20:42.163Z,80787.37
2023-02-05T16:27:00.569Z,80821.63
2023-02-05T16:33:18.746Z,80868.99
2023-02-05T16:39:36.774Z,80873.02
2023-02-05T16:46:02.366Z,80886.13
2023-02-05T16:52:25.486Z,80899.23
2023-02-05T16:58:49.268Z,80895.19
2023-02-05T17:05:07.665Z,80963.72
2023-02-05T17:11:30.423Z,80948.61
2023-02-05T17:17:55.520Z,80960.70
2023-02-05T17:24:13.250Z,80982.87
2023-02-05T17:30:31.382Z,80984.88
2023-02-05T17:36:50.032Z,80988.92
2023-02-05T17:43:08.377Z,80971.78
2023-02-05T17:49:26.460Z,80982.87
2023-02-05T17:55:44.417Z,80987.91
2023-02-05T18:02:04.678Z,81015.12
2023-02-05T18:08:22.480Z,81007.06
2023-02-05T18:14:40.553Z,81036.28
2023-02-05T18:20:58.916Z,81039.31
2023-02-05T18:27:16.741Z,81073.57
2023-02-05T18:33:36.171Z,81063.49
2023-02-05T18:39:54.126Z,81063.49
2023-02-05T18:46:11.938Z,81090.70
2023-02-05T18:52:30.039Z,81075.59
2023-02-05T18:58:49.850Z,81092.72
2023-02-05T19:05:07.784Z,81102.80
2023-02-05T19:11:25.771Z,81108.84
2023-02-05T19:17:43.605Z,81097.76
2023-02-05T19:24:01.867Z,81144.12
2023-02-05T19:30:19.722Z,81130.01
2023-02-05T19:36:37.501Z,81119.93
2023-02-05T19:42:56.869Z,81107.84
2023-02-05T19:49:15.727Z,81091.71
2023-02-05T19:55:34.110Z,81104.81
2023-02-05T20:01:52.067Z,81129.00
2023-02-05T20:08:10.529Z,81193.50
2023-02-05T20:14:31.497Z,81163.27
2023-02-05T20:20:49.318Z,81146.14
2023-02-05T20:27:07.422Z,81143.11
2023-02-05T20:33:25.923Z,81164.28
2023-02-05T20:39:44.049Z,81162.26
2023-02-05T20:46:02.250Z,81192.49
2023-02-05T20:52:20.130Z,81224.75
2023-02-05T20:58:39.425Z,81227.77
2023-02-05T21:04:57.321Z,81242.89
2023-02-05T21:11:15.412Z,81271.11
2023-02-05T21:17:32.907Z,81294.29
2023-02-05T21:23:50.987Z,81287.23
2023-02-05T21:30:11.194Z,81293.28
2023-02-05T21:36:29.059Z,81287.23
2023-02-05T21:42:46.998Z,81292.27
2023-02-05T21:49:04.615Z,81334.60
2023-02-05T21:55:22.805Z,81341.66
2023-02-05T22:01:40.428Z,81339.64
2023-02-05T22:08:00.790Z,81356.77
2023-02-05T22:14:19.212Z,81348.71
2023-02-05T22:20:37.354Z,81346.70
2023-02-05T22:26:58.067Z,81378.95
2023-02-05T22:33:16.224Z,81385.00
2023-02-05T22:39:34.510Z,81403.14
2023-02-05T22:45:52.216Z,81407.17
2023-02-05T22:52:10.539Z,81400.12
2023-02-05T22:58:28.521Z,81399.11
2023-02-05T23:04:46.157Z,81383.98
2023-02-05T23:11:04.589Z,81394.06
2023-02-05T23:17:22.380Z,81400.12
2023-02-05T23:23:41.118Z,81435.39
2023-02-05T23:29:58.927Z,81412.20
2023-02-05T23:36:16.725Z,81408.17
2023-02-05T23:42:34.883Z,81430.35
2023-02-05T23:48:52.832Z,81417.25
2023-02-05T23:55:11.089Z,81423.30
